sensor_id;sensor_type;location;lat;lon;timestamp;temperature;humidity
13264;DHT22;6700;51.988;7.646;2022-10-31T00:01:35;13.70;99.90
13264;DHT22;6700;51.988;7.646;2022-10-31T00:04:03;13.70;99.90
13264;DHT22;6700;51.988;7.646;2022-10-31T00:06:43;13.60;99.90
13264;DHT22;6700;51.988;7.646;2022-10-31T00:09:36;13.60;99.90
13264;DHT22;6700;51.988;7.646;2022-10-31T00:12:23;13.50;99.90
13264;DHT22;6700;51.988;7.646;2022-10-31T00:14:59;13.50;99.90
13264;DHT22;6700;51.988;7.646;2022-10-31T00:17:50;13.50;99.90
13264;DHT22;6700;51.988;7.646;2022-10-31T00:20:26;13.40;99.90
13264;DHT22;6700;51.988;7.646;2022-10-31T00:23:32;13.40;99.90
13264;DHT22;6700;51.988;7.646;2022-10-31T00:26:20;13.40;99.90
13264;DHT22;6700;51.988;7.646;2022-10-31T00:28:47;13.30;99.90
13264;DHT22;6700;51.988;7.646;2022-10-31T00:31:14;13.20;99.90
13264;DHT22;6700;51.988;7.646;2022-10-31T00:33:42;13.20;99.90
13264;DHT22;6700;51.988;7.646;2022-10-31T00:36:14;13.20;99.90
13264;DHT22;6700;51.988;7.646;2022-10-31T00:38:43;13.20;99.90
13264;DHT22;6700;51.988;7.646;2022-10-31T00:41:11;13.10;99.90
13264;DHT22;6700;51.988;7.646;2022-10-31T00:43:38;13.10;99.90
13264;DHT22;6700;51.988;7.646;2022-10-31T00:46:31;13.10;99.90
13264;DHT22;6700;51.988;7.646;2022-10-31T00:49:08;13.00;99.90
13264;DHT22;6700;51.988;7.646;2022-10-31T00:51:54;13.00;99.90
13264;DHT22;6700;51.988;7.646;2022-10-31T00:54:43;13.00;99.90
13264;DHT22;6700;51.988;7.646;2022-10-31T00:57:51;12.90;99.90
13264;DHT22;6700;51.988;7.646;2022-10-31T01:00:37;12.90;99.90
13264;DHT22;6700;51.988;7.646;2022-10-31T01:03:40;12.90;99.90
13264;DHT22;6700;51.988;7.646;2022-10-31T01:06:32;12.90;99.90
13264;DHT22;6700;51.988;7.646;2022-10-31T01:09:27;12.90;99.90
13264;DHT22;6700;51.988;7.646;2022-10-31T01:12:16;12.80;99.90
13264;DHT22;6700;51.988;7.646;2022-10-31T01:15:03;12.90;99.90
13264;DHT22;6700;51.988;7.646;2022-10-31T01:17:58;12.80;99.90
13264;DHT22;6700;51.988;7.646;2022-10-31T01:21:18;12.90;99.90
13264;DHT22;6700;51.988;7.646;2022-10-31T01:24:03;12.90;99.90
13264;DHT22;6700;51.988;7.646;2022-10-31T01:27:10;12.90;99.90
13264;DHT22;6700;51.988;7.646;2022-10-31T01:29:52;12.80;99.90
13264;DHT22;6700;51.988;7.646;2022-10-31T01:32:29;12.90;99.90
13264;DHT22;6700;51.988;7.646;2022-10-31T01:35:19;12.80;99.90
13264;DHT22;6700;51.988;7.646;2022-10-31T01:37:55;12.90;99.90
13264;DHT22;6700;51.988;7.646;2022-10-31T01:40:30;12.80;99.90
13264;DHT22;6700;51.988;7.646;2022-10-31T01:43:43;12.80;99.90
13264;DHT22;6700;51.988;7.646;2022-10-31T01:46:32;12.70;99.90
13264;DHT22;6700;51.988;7.646;2022-10-31T01:49:12;12.70;99.90
13264;DHT22;6700;51.988;7.646;2022-10-31T01:51:56;12.70;99.90
13264;DHT22;6700;51.988;7.646;2022-10-31T01:55:31;12.60;99.90
13264;DHT22;6700;51.988;7.646;2022-10-31T01:58:18;12.60;99.90
13264;DHT22;6700;51.988;7.646;2022-10-31T02:01:00;12.60;99.90
13264;DHT22;6700;51.988;7.646;2022-10-31T02:04:11;12.60;99.90
13264;DHT22;6700;51.988;7.646;2022-10-31T02:07:09;12.60;99.90
13264;DHT22;6700;51.988;7.646;2022-10-31T02:10:00;12.60;99.90
13264;DHT22;6700;51.988;7.646;2022-10-31T02:12:40;12.60;99.90
13264;DHT22;6700;51.988;7.646;2022-10-31T02:15:14;12.50;99.90
13264;DHT22;6700;51.988;7.646;2022-10-31T02:18:28;12.50;99.90
13264;DHT22;6700;51.988;7.646;2022-10-31T02:21:56;12.50;99.90
13264;DHT22;6700;51.988;7.646;2022-10-31T02:25:42;12.50;99.90
13264;DHT22;6700;51.988;7.646;2022-10-31T02:32:52;12.40;99.90
13264;DHT22;6700;51.988;7.646;2022-10-31T02:36:24;12.40;99.90
13264;DHT22;6700;51.988;7.646;2022-10-31T02:39:35;12.40;99.90
13264;DHT22;6700;51.988;7.646;2022-10-31T02:52:51;12.20;99.90
13264;DHT22;6700;51.988;7.646;2022-10-31T02:56:29;12.20;99.90
13264;DHT22;6700;51.988;7.646;2022-10-31T02:59:05;12.20;99.90
13264;DHT22;6700;51.988;7.646;2022-10-31T03:06:17;12.10;99.90
13264;DHT22;6700;51.988;7.646;2022-10-31T03:10:01;12.10;99.90
13264;DHT22;6700;51.988;7.646;2022-10-31T03:16:40;12.20;99.90
13264;DHT22;6700;51.988;7.646;2022-10-31T03:19:55;12.20;99.90
13264;DHT22;6700;51.988;7.646;2022-10-31T03:22:43;12.20;99.90
13264;DHT22;6700;51.988;7.646;2022-10-31T03:25:29;12.20;99.90
13264;DHT22;6700;51.988;7.646;2022-10-31T03:28:36;12.10;99.90
13264;DHT22;6700;51.988;7.646;2022-10-31T03:35:04;11.90;99.90
13264;DHT22;6700;51.988;7.646;2022-10-31T03:38:19;11.90;99.90
13264;DHT22;6700;51.988;7.646;2022-10-31T03:40:57;11.80;99.90
13264;DHT22;6700;51.988;7.646;2022-10-31T03:44:08;11.80;99.90
13264;DHT22;6700;51.988;7.646;2022-10-31T03:46:41;11.70;99.90
13264;DHT22;6700;51.988;7.646;2022-10-31T03:49:24;11.80;99.90
13264;DHT22;6700;51.988;7.646;2022-10-31T03:52:25;11.70;99.90
13264;DHT22;6700;51.988;7.646;2022-10-31T03:55:31;11.70;99.90
13264;DHT22;6700;51.988;7.646;2022-10-31T03:58:36;11.60;99.90
13264;DHT22;6700;51.988;7.646;2022-10-31T04:01:31;11.60;99.90
13264;DHT22;6700;51.988;7.646;2022-10-31T04:04:34;11.50;99.90
13264;DHT22;6700;51.988;7.646;2022-10-31T04:07:31;11.50;99.90
13264;DHT22;6700;51.988;7.646;2022-10-31T04:10:30;11.50;99.90
13264;DHT22;6700;51.988;7.646;2022-10-31T04:13:13;11.50;99.90
13264;DHT22;6700;51.988;7.646;2022-10-31T04:15:54;11.40;99.90
13264;DHT22;6700;51.988;7.646;2022-10-31T04:18:23;11.50;99.90
13264;DHT22;6700;51.988;7.646;2022-10-31T04:21:02;11.40;99.90
13264;DHT22;6700;51.988;7.646;2022-10-31T04:23:29;11.40;99.90
13264;DHT22;6700;51.988;7.646;2022-10-31T04:25:57;11.40;99.90
13264;DHT22;6700;51.988;7.646;2022-10-31T04:28:37;11.30;99.90
13264;DHT22;6700;51.988;7.646;2022-10-31T04:31:22;11.30;99.90
13264;DHT22;6700;51.988;7.646;2022-10-31T04:34:07;11.30;99.90
13264;DHT22;6700;51.988;7.646;2022-10-31T04:36:53;11.30;99.90
13264;DHT22;6700;51.988;7.646;2022-10-31T04:39:23;11.30;99.90
13264;DHT22;6700;51.988;7.646;2022-10-31T04:42:02;11.30;99.90
13264;DHT22;6700;51.988;7.646;2022-10-31T04:44:35;11.30;99.90
13264;DHT22;6700;51.988;7.646;2022-10-31T04:47:25;11.20;99.90
13264;DHT22;6700;51.988;7.646;2022-10-31T04:50:19;11.20;99.90
13264;DHT22;6700;51.988;7.646;2022-10-31T04:53:16;11.20;99.90
13264;DHT22;6700;51.988;7.646;2022-10-31T04:55:43;11.20;99.90
13264;DHT22;6700;51.988;7.646;2022-10-31T04:58:36;11.10;99.90
13264;DHT22;6700;51.988;7.646;2022-10-31T05:01:27;11.10;99.90
13264;DHT22;6700;51.988;7.646;2022-10-31T05:04:11;11.10;99.90
13264;DHT22;6700;51.988;7.646;2022-10-31T05:06:59;11.10;99.90
13264;DHT22;6700;51.988;7.646;2022-10-31T05:09:44;11.10;99.90
13264;DHT22;6700;51.988;7.646;2022-10-31T05:12:30;11.10;99.90
13264;DHT22;6700;51.988;7.646;2022-10-31T05:15:16;11.10;99.90
13264;DHT22;6700;51.988;7.646;2022-10-31T05:18:08;11.00;99.90
13264;DHT22;6700;51.988;7.646;2022-10-31T05:21:04;11.00;99.90
13264;DHT22;6700;51.988;7.646;2022-10-31T05:23:35;10.90;99.90
13264;DHT22;6700;51.988;7.646;2022-10-31T05:26:20;10.90;99.90
13264;DHT22;6700;51.988;7.646;2022-10-31T05:28:47;10.80;99.90
13264;DHT22;6700;51.988;7.646;2022-10-31T05:31:18;10.90;99.90
13264;DHT22;6700;51.988;7.646;2022-10-31T05:34:04;10.90;99.90
13264;DHT22;6700;51.988;7.646;2022-10-31T05:37:18;10.80;99.90
13264;DHT22;6700;51.988;7.646;2022-10-31T05:40:06;10.80;99.90
13264;DHT22;6700;51.988;7.646;2022-10-31T05:42:43;10.90;99.90
13264;DHT22;6700;51.988;7.646;2022-10-31T05:45:35;10.90;99.90
13264;DHT22;6700;51.988;7.646;2022-10-31T05:48:05;10.80;99.90
13264;DHT22;6700;51.988;7.646;2022-10-31T05:50:36;10.80;99.90
13264;DHT22;6700;51.988;7.646;2022-10-31T05:53:13;10.80;99.90
13264;DHT22;6700;51.988;7.646;2022-10-31T05:56:21;10.80;99.90
13264;DHT22;6700;51.988;7.646;2022-10-31T05:58:57;10.80;99.90
13264;DHT22;6700;51.988;7.646;2022-10-31T06:01:40;10.80;99.90
13264;DHT22;6700;51.988;7.646;2022-10-31T06:04:26;10.70;99.90
13264;DHT22;6700;51.988;7.646;2022-10-31T06:06:57;10.70;99.90
13264;DHT22;6700;51.988;7.646;2022-10-31T06:09:41;10.70;99.90
13264;DHT22;6700;51.988;7.646;2022-10-31T06:12:25;10.70;99.90
13264;DHT22;6700;51.988;7.646;2022-10-31T06:15:25;10.70;99.90
13264;DHT22;6700;51.988;7.646;2022-10-31T06:18:12;10.70;99.90
13264;DHT22;6700;51.988;7.646;2022-10-31T06:20:55;10.70;99.90
13264;DHT22;6700;51.988;7.646;2022-10-31T06:23:41;10.70;99.90
13264;DHT22;6700;51.988;7.646;2022-10-31T06:26:49;10.70;99.90
13264;DHT22;6700;51.988;7.646;2022-10-31T06:29:35;10.70;99.90
13264;DHT22;6700;51.988;7.646;2022-10-31T06:32:34;10.60;99.90
13264;DHT22;6700;51.988;7.646;2022-10-31T06:35:26;10.60;99.90
13264;DHT22;6700;51.988;7.646;2022-10-31T06:38:12;10.70;99.90
13264;DHT22;6700;51.988;7.646;2022-10-31T06:40:54;10.60;99.90
13264;DHT22;6700;51.988;7.646;2022-10-31T06:44:06;10.60;99.90
13264;DHT22;6700;51.988;7.646;2022-10-31T06:46:46;10.70;99.90
13264;DHT22;6700;51.988;7.646;2022-10-31T06:49:18;10.70;99.90
13264;DHT22;6700;51.988;7.646;2022-10-31T06:51:54;10.70;99.90
13264;DHT22;6700;51.988;7.646;2022-10-31T06:54:25;10.70;99.90
13264;DHT22;6700;51.988;7.646;2022-10-31T06:57:22;10.60;99.90
13264;DHT22;6700;51.988;7.646;2022-10-31T07:00:15;10.60;99.90
13264;DHT22;6700;51.988;7.646;2022-10-31T07:03:02;10.60;99.90
13264;DHT22;6700;51.988;7.646;2022-10-31T07:05:45;10.60;99.90
13264;DHT22;6700;51.988;7.646;2022-10-31T07:08:29;10.70;99.90
13264;DHT22;6700;51.988;7.646;2022-10-31T07:11:23;10.70;99.90
13264;DHT22;6700;51.988;7.646;2022-10-31T07:14:05;10.70;99.90
13264;DHT22;6700;51.988;7.646;2022-10-31T07:16:59;10.80;99.90
13264;DHT22;6700;51.988;7.646;2022-10-31T07:19:40;10.80;99.90
13264;DHT22;6700;51.988;7.646;2022-10-31T07:22:20;10.90;99.90
13264;DHT22;6700;51.988;7.646;2022-10-31T07:24:59;11.00;99.90
13264;DHT22;6700;51.988;7.646;2022-10-31T07:31:21;11.30;99.90
13264;DHT22;6700;51.988;7.646;2022-10-31T07:34:12;11.30;99.90
13264;DHT22;6700;51.988;7.646;2022-10-31T07:36:51;11.40;99.90
13264;DHT22;6700;51.988;7.646;2022-10-31T07:39:25;11.30;99.90
13264;DHT22;6700;51.988;7.646;2022-10-31T07:42:12;11.40;99.90
13264;DHT22;6700;51.988;7.646;2022-10-31T07:44:45;11.40;99.90
13264;DHT22;6700;51.988;7.646;2022-10-31T07:47:54;11.50;99.90
13264;DHT22;6700;51.988;7.646;2022-10-31T07:50:37;11.60;99.90
13264;DHT22;6700;51.988;7.646;2022-10-31T07:53:29;11.70;99.90
13264;DHT22;6700;51.988;7.646;2022-10-31T07:56:15;11.70;99.90
13264;DHT22;6700;51.988;7.646;2022-10-31T07:59:09;11.90;99.90
13264;DHT22;6700;51.988;7.646;2022-10-31T08:01:46;12.10;99.90
13264;DHT22;6700;51.988;7.646;2022-10-31T08:04:25;12.30;99.90
13264;DHT22;6700;51.988;7.646;2022-10-31T08:07:16;12.40;99.90
13264;DHT22;6700;51.988;7.646;2022-10-31T08:10:08;12.40;99.90
13264;DHT22;6700;51.988;7.646;2022-10-31T08:13:26;12.50;99.90
13264;DHT22;6700;51.988;7.646;2022-10-31T08:16:20;12.60;99.90
13264;DHT22;6700;51.988;7.646;2022-10-31T08:19:10;12.60;99.90
13264;DHT22;6700;51.988;7.646;2022-10-31T08:22:09;12.80;99.90
13264;DHT22;6700;51.988;7.646;2022-10-31T08:24:59;12.80;99.90
13264;DHT22;6700;51.988;7.646;2022-10-31T08:27:27;12.80;99.90
13264;DHT22;6700;51.988;7.646;2022-10-31T08:30:03;12.80;99.90
13264;DHT22;6700;51.988;7.646;2022-10-31T08:32:31;12.90;99.90
13264;DHT22;6700;51.988;7.646;2022-10-31T08:34:57;13.10;99.90
13264;DHT22;6700;51.988;7.646;2022-10-31T08:37:26;13.00;99.90
13264;DHT22;6700;51.988;7.646;2022-10-31T08:39:59;13.10;99.90
13264;DHT22;6700;51.988;7.646;2022-10-31T08:42:35;13.10;99.90
13264;DHT22;6700;51.988;7.646;2022-10-31T08:45:28;13.10;99.90
13264;DHT22;6700;51.988;7.646;2022-10-31T08:48:43;13.10;99.90
13264;DHT22;6700;51.988;7.646;2022-10-31T08:51:19;13.30;99.90
13264;DHT22;6700;51.988;7.646;2022-10-31T08:54:09;13.30;99.90
13264;DHT22;6700;51.988;7.646;2022-10-31T08:56:53;13.40;99.90
13264;DHT22;6700;51.988;7.646;2022-10-31T08:59:40;13.50;99.90
13264;DHT22;6700;51.988;7.646;2022-10-31T09:02:33;13.50;99.90
13264;DHT22;6700;51.988;7.646;2022-10-31T09:05:20;13.50;99.90
13264;DHT22;6700;51.988;7.646;2022-10-31T09:08:11;13.60;99.90
13264;DHT22;6700;51.988;7.646;2022-10-31T09:11:07;13.60;99.90
13264;DHT22;6700;51.988;7.646;2022-10-31T09:13:55;13.70;99.90
13264;DHT22;6700;51.988;7.646;2022-10-31T09:16:38;13.80;99.90
13264;DHT22;6700;51.988;7.646;2022-10-31T09:19:19;13.90;99.90
13264;DHT22;6700;51.988;7.646;2022-10-31T09:22:02;13.90;99.90
13264;DHT22;6700;51.988;7.646;2022-10-31T09:24:49;13.90;99.90
13264;DHT22;6700;51.988;7.646;2022-10-31T09:27:17;14.00;99.90
13264;DHT22;6700;51.988;7.646;2022-10-31T09:29:43;14.00;99.90
13264;DHT22;6700;51.988;7.646;2022-10-31T09:32:10;14.10;99.90
13264;DHT22;6700;51.988;7.646;2022-10-31T09:34:52;14.20;99.90
13264;DHT22;6700;51.988;7.646;2022-10-31T09:37:30;14.30;99.90
13264;DHT22;6700;51.988;7.646;2022-10-31T09:40:18;14.30;99.90
13264;DHT22;6700;51.988;7.646;2022-10-31T09:47:17;14.50;99.90
13264;DHT22;6700;51.988;7.646;2022-10-31T09:53:13;14.70;99.90
13264;DHT22;6700;51.988;7.646;2022-10-31T09:56:11;14.80;99.90
13264;DHT22;6700;51.988;7.646;2022-10-31T10:02:19;15.00;99.90
13264;DHT22;6700;51.988;7.646;2022-10-31T10:05:03;15.10;99.90
13264;DHT22;6700;51.988;7.646;2022-10-31T10:17:45;15.30;99.90
13264;DHT22;6700;51.988;7.646;2022-10-31T10:20:50;15.50;99.90
13264;DHT22;6700;51.988;7.646;2022-10-31T10:34:39;15.90;99.90
13264;DHT22;6700;51.988;7.646;2022-10-31T10:37:42;16.00;99.90
13264;DHT22;6700;51.988;7.646;2022-10-31T10:40:25;16.10;99.90
13264;DHT22;6700;51.988;7.646;2022-10-31T10:43:38;16.10;99.90
13264;DHT22;6700;51.988;7.646;2022-10-31T10:46:41;16.20;99.90
13264;DHT22;6700;51.988;7.646;2022-10-31T10:49:55;16.20;99.90
13264;DHT22;6700;51.988;7.646;2022-10-31T11:00:00;16.40;99.90
13264;DHT22;6700;51.988;7.646;2022-10-31T11:02:38;16.50;99.90
13264;DHT22;6700;51.988;7.646;2022-10-31T11:05:28;16.50;99.90
13264;DHT22;6700;51.988;7.646;2022-10-31T11:08:35;16.50;99.90
13264;DHT22;6700;51.988;7.646;2022-10-31T11:11:38;16.70;99.90
13264;DHT22;6700;51.988;7.646;2022-10-31T11:15:06;16.60;99.90
13264;DHT22;6700;51.988;7.646;2022-10-31T11:18:26;16.60;99.90
13264;DHT22;6700;51.988;7.646;2022-10-31T11:21:28;16.80;99.90
13264;DHT22;6700;51.988;7.646;2022-10-31T11:24:27;16.80;99.90
13264;DHT22;6700;51.988;7.646;2022-10-31T11:27:21;17.00;99.90
13264;DHT22;6700;51.988;7.646;2022-10-31T11:30:15;17.10;99.90
13264;DHT22;6700;51.988;7.646;2022-10-31T11:33:47;17.20;99.90
13264;DHT22;6700;51.988;7.646;2022-10-31T11:36:38;17.20;99.90
13264;DHT22;6700;51.988;7.646;2022-10-31T11:39:48;17.40;99.90
13264;DHT22;6700;51.988;7.646;2022-10-31T11:42:41;17.40;99.90
13264;DHT22;6700;51.988;7.646;2022-10-31T11:45:33;17.30;99.90
13264;DHT22;6700;51.988;7.646;2022-10-31T11:48:51;17.40;99.90
13264;DHT22;6700;51.988;7.646;2022-10-31T11:51:46;17.40;99.90
13264;DHT22;6700;51.988;7.646;2022-10-31T11:57:50;17.50;99.90
13264;DHT22;6700;51.988;7.646;2022-10-31T12:00:33;17.30;99.90
13264;DHT22;6700;51.988;7.646;2022-10-31T12:03:48;17.40;99.90
13264;DHT22;6700;51.988;7.646;2022-10-31T12:06:43;17.40;99.90
13264;DHT22;6700;51.988;7.646;2022-10-31T12:09:37;17.30;99.90
13264;DHT22;6700;51.988;7.646;2022-10-31T12:16:02;17.30;99.90
13264;DHT22;6700;51.988;7.646;2022-10-31T12:19:02;17.40;99.90
13264;DHT22;6700;51.988;7.646;2022-10-31T12:22:06;17.30;99.90
13264;DHT22;6700;51.988;7.646;2022-10-31T12:34:09;17.40;99.90
13264;DHT22;6700;51.988;7.646;2022-10-31T12:37:38;17.30;99.90
13264;DHT22;6700;51.988;7.646;2022-10-31T12:53:40;17.40;99.90
13264;DHT22;6700;51.988;7.646;2022-10-31T13:05:37;17.50;99.90
13264;DHT22;6700;51.988;7.646;2022-10-31T13:08:15;17.50;99.90
13264;DHT22;6700;51.988;7.646;2022-10-31T13:10:50;17.50;99.90
13264;DHT22;6700;51.988;7.646;2022-10-31T13:13:26;17.50;99.90
13264;DHT22;6700;51.988;7.646;2022-10-31T13:18:52;17.30;99.90
13264;DHT22;6700;51.988;7.646;2022-10-31T13:21:28;17.40;99.90
13264;DHT22;6700;51.988;7.646;2022-10-31T13:24:00;17.30;99.90
13264;DHT22;6700;51.988;7.646;2022-10-31T13:26:47;17.40;99.90
13264;DHT22;6700;51.988;7.646;2022-10-31T13:29:29;17.30;99.90
13264;DHT22;6700;51.988;7.646;2022-10-31T13:32:00;17.40;99.90
13264;DHT22;6700;51.988;7.646;2022-10-31T13:34:37;17.30;99.90
13264;DHT22;6700;51.988;7.646;2022-10-31T13:37:10;17.40;99.90
13264;DHT22;6700;51.988;7.646;2022-10-31T13:45:16;17.40;99.90
13264;DHT22;6700;51.988;7.646;2022-10-31T13:50:33;17.50;99.90
13264;DHT22;6700;51.988;7.646;2022-10-31T13:53:19;17.40;99.90
13264;DHT22;6700;51.988;7.646;2022-10-31T13:56:02;17.30;99.90
13264;DHT22;6700;51.988;7.646;2022-10-31T13:58:30;17.20;99.90
13264;DHT22;6700;51.988;7.646;2022-10-31T14:01:20;17.30;99.90
13264;DHT22;6700;51.988;7.646;2022-10-31T14:04:46;17.20;99.90
13264;DHT22;6700;51.988;7.646;2022-10-31T14:07:09;17.20;99.90
13264;DHT22;6700;51.988;7.646;2022-10-31T14:09:50;17.20;99.90
13264;DHT22;6700;51.988;7.646;2022-10-31T14:12:43;17.20;99.90
13264;DHT22;6700;51.988;7.646;2022-10-31T14:15:23;17.20;99.90
13264;DHT22;6700;51.988;7.646;2022-10-31T14:17:54;17.20;99.90
13264;DHT22;6700;51.988;7.646;2022-10-31T14:28:47;17.20;99.90
13264;DHT22;6700;51.988;7.646;2022-10-31T14:31:42;17.10;99.90
13264;DHT22;6700;51.988;7.646;2022-10-31T14:42:29;17.10;99.90
13264;DHT22;6700;51.988;7.646;2022-10-31T14:48:23;17.10;99.90
13264;DHT22;6700;51.988;7.646;2022-10-31T14:50:53;17.00;99.90
13264;DHT22;6700;51.988;7.646;2022-10-31T14:53:25;17.00;99.90
13264;DHT22;6700;51.988;7.646;2022-10-31T14:55:54;17.10;99.90
13264;DHT22;6700;51.988;7.646;2022-10-31T15:00:58;17.00;99.90
13264;DHT22;6700;51.988;7.646;2022-10-31T15:03:45;16.90;99.90
13264;DHT22;6700;51.988;7.646;2022-10-31T15:06:43;17.00;99.90
13264;DHT22;6700;51.988;7.646;2022-10-31T15:09:32;16.80;99.90
13264;DHT22;6700;51.988;7.646;2022-10-31T15:12:01;16.90;99.90
13264;DHT22;6700;51.988;7.646;2022-10-31T15:14:41;16.90;99.90
13264;DHT22;6700;51.988;7.646;2022-10-31T15:17:10;16.80;99.90
13264;DHT22;6700;51.988;7.646;2022-10-31T15:19:38;16.90;99.90
13264;DHT22;6700;51.988;7.646;2022-10-31T15:22:05;16.80;99.90
13264;DHT22;6700;51.988;7.646;2022-10-31T15:24:37;16.80;99.90
13264;DHT22;6700;51.988;7.646;2022-10-31T15:27:05;16.80;99.90
13264;DHT22;6700;51.988;7.646;2022-10-31T15:29:47;16.80;99.90
13264;DHT22;6700;51.988;7.646;2022-10-31T15:32:20;16.70;99.90
13264;DHT22;6700;51.988;7.646;2022-10-31T15:34:50;16.70;99.90
13264;DHT22;6700;51.988;7.646;2022-10-31T15:37:20;16.60;99.90
13264;DHT22;6700;51.988;7.646;2022-10-31T15:39:48;16.50;99.90
13264;DHT22;6700;51.988;7.646;2022-10-31T15:42:32;16.60;99.90
13264;DHT22;6700;51.988;7.646;2022-10-31T15:45:12;16.50;99.90
13264;DHT22;6700;51.988;7.646;2022-10-31T15:47:57;16.50;99.90
13264;DHT22;6700;51.988;7.646;2022-10-31T15:50:32;16.50;99.90
13264;DHT22;6700;51.988;7.646;2022-10-31T15:53:03;16.50;99.90
13264;DHT22;6700;51.988;7.646;2022-10-31T15:55:36;16.40;99.90
13264;DHT22;6700;51.988;7.646;2022-10-31T15:58:11;16.30;99.90
13264;DHT22;6700;51.988;7.646;2022-10-31T16:00:39;16.30;99.90
13264;DHT22;6700;51.988;7.646;2022-10-31T16:05:49;16.00;99.90
13264;DHT22;6700;51.988;7.646;2022-10-31T16:10:59;16.00;99.90
13264;DHT22;6700;51.988;7.646;2022-10-31T16:13:33;16.00;99.90
13264;DHT22;6700;51.988;7.646;2022-10-31T16:16:02;15.90;99.90
13264;DHT22;6700;51.988;7.646;2022-10-31T16:18:51;15.90;99.90
13264;DHT22;6700;51.988;7.646;2022-10-31T16:21:29;15.90;99.90
13264;DHT22;6700;51.988;7.646;2022-10-31T16:26:49;15.80;99.90
13264;DHT22;6700;51.988;7.646;2022-10-31T16:29:34;15.70;99.90
13264;DHT22;6700;51.988;7.646;2022-10-31T16:32:02;15.70;99.90
13264;DHT22;6700;51.988;7.646;2022-10-31T16:34:29;15.70;99.90
13264;DHT22;6700;51.988;7.646;2022-10-31T16:36:56;15.70;99.90
13264;DHT22;6700;51.988;7.646;2022-10-31T16:39:23;15.70;99.90
13264;DHT22;6700;51.988;7.646;2022-10-31T16:41:55;15.70;99.90
13264;DHT22;6700;51.988;7.646;2022-10-31T16:44:24;15.70;99.90
13264;DHT22;6700;51.988;7.646;2022-10-31T16:49:35;15.70;99.90
13264;DHT22;6700;51.988;7.646;2022-10-31T16:52:01;15.60;99.90
13264;DHT22;6700;51.988;7.646;2022-10-31T16:54:29;15.60;99.90
13264;DHT22;6700;51.988;7.646;2022-10-31T16:56:58;15.50;99.90
13264;DHT22;6700;51.988;7.646;2022-10-31T16:59:26;15.50;99.90
13264;DHT22;6700;51.988;7.646;2022-10-31T17:01:54;15.50;99.90
13264;DHT22;6700;51.988;7.646;2022-10-31T17:04:21;15.50;99.90
13264;DHT22;6700;51.988;7.646;2022-10-31T17:06:48;15.50;99.90
13264;DHT22;6700;51.988;7.646;2022-10-31T17:09:15;15.50;99.90
13264;DHT22;6700;51.988;7.646;2022-10-31T17:11:46;15.50;99.90
13264;DHT22;6700;51.988;7.646;2022-10-31T17:14:16;15.50;99.90
13264;DHT22;6700;51.988;7.646;2022-10-31T17:16:43;15.50;99.90
13264;DHT22;6700;51.988;7.646;2022-10-31T17:19:10;15.50;99.90
13264;DHT22;6700;51.988;7.646;2022-10-31T17:21:38;15.50;99.90
13264;DHT22;6700;51.988;7.646;2022-10-31T17:24:06;15.40;99.90
13264;DHT22;6700;51.988;7.646;2022-10-31T17:26:34;15.40;99.90
13264;DHT22;6700;51.988;7.646;2022-10-31T17:29:01;15.40;99.90
13264;DHT22;6700;51.988;7.646;2022-10-31T17:31:33;15.30;99.90
13264;DHT22;6700;51.988;7.646;2022-10-31T17:34:01;15.30;99.90
13264;DHT22;6700;51.988;7.646;2022-10-31T17:36:33;15.30;99.90
13264;DHT22;6700;51.988;7.646;2022-10-31T17:39:00;15.40;99.90
13264;DHT22;6700;51.988;7.646;2022-10-31T17:41:27;15.30;99.90
13264;DHT22;6700;51.988;7.646;2022-10-31T17:43:58;15.30;99.90
13264;DHT22;6700;51.988;7.646;2022-10-31T17:46:25;15.30;99.90
13264;DHT22;6700;51.988;7.646;2022-10-31T17:48:53;15.30;99.90
13264;DHT22;6700;51.988;7.646;2022-10-31T17:51:20;15.30;99.90
13264;DHT22;6700;51.988;7.646;2022-10-31T17:53:46;15.30;99.90
13264;DHT22;6700;51.988;7.646;2022-10-31T17:56:13;15.30;99.90
13264;DHT22;6700;51.988;7.646;2022-10-31T17:58:40;15.30;99.90
13264;DHT22;6700;51.988;7.646;2022-10-31T18:01:12;15.30;99.90
13264;DHT22;6700;51.988;7.646;2022-10-31T18:03:40;15.30;99.90
13264;DHT22;6700;51.988;7.646;2022-10-31T18:06:07;15.20;99.90
13264;DHT22;6700;51.988;7.646;2022-10-31T18:08:37;15.20;99.90
13264;DHT22;6700;51.988;7.646;2022-10-31T18:11:15;15.20;99.90
13264;DHT22;6700;51.988;7.646;2022-10-31T18:13:42;15.20;99.90
13264;DHT22;6700;51.988;7.646;2022-10-31T18:16:13;15.20;99.90
13264;DHT22;6700;51.988;7.646;2022-10-31T18:18:40;15.20;99.90
13264;DHT22;6700;51.988;7.646;2022-10-31T18:21:07;15.10;99.90
13264;DHT22;6700;51.988;7.646;2022-10-31T18:23:34;15.10;99.90
13264;DHT22;6700;51.988;7.646;2022-10-31T18:26:01;15.10;99.90
13264;DHT22;6700;51.988;7.646;2022-10-31T18:28:27;15.10;99.90
13264;DHT22;6700;51.988;7.646;2022-10-31T18:30:57;15.00;99.90
13264;DHT22;6700;51.988;7.646;2022-10-31T18:33:25;15.00;99.90
13264;DHT22;6700;51.988;7.646;2022-10-31T18:35:51;15.00;99.90
13264;DHT22;6700;51.988;7.646;2022-10-31T18:38:18;15.00;99.90
13264;DHT22;6700;51.988;7.646;2022-10-31T18:40:45;15.00;99.90
13264;DHT22;6700;51.988;7.646;2022-10-31T18:43:12;15.00;99.90
13264;DHT22;6700;51.988;7.646;2022-10-31T18:45:39;14.90;99.90
13264;DHT22;6700;51.988;7.646;2022-10-31T18:48:14;14.90;99.90
13264;DHT22;6700;51.988;7.646;2022-10-31T18:50:42;14.90;99.90
13264;DHT22;6700;51.988;7.646;2022-10-31T18:53:08;14.80;99.90
13264;DHT22;6700;51.988;7.646;2022-10-31T18:55:39;14.90;99.90
13264;DHT22;6700;51.988;7.646;2022-10-31T18:58:13;14.90;99.90
13264;DHT22;6700;51.988;7.646;2022-10-31T19:00:40;14.90;99.90
13264;DHT22;6700;51.988;7.646;2022-10-31T19:03:06;14.90;99.90
13264;DHT22;6700;51.988;7.646;2022-10-31T19:05:33;14.80;99.90
13264;DHT22;6700;51.988;7.646;2022-10-31T19:08:00;14.90;99.90
13264;DHT22;6700;51.988;7.646;2022-10-31T19:10:27;14.90;99.90
13264;DHT22;6700;51.988;7.646;2022-10-31T19:12:54;14.90;99.90
13264;DHT22;6700;51.988;7.646;2022-10-31T19:15:21;14.80;99.90
13264;DHT22;6700;51.988;7.646;2022-10-31T19:17:47;14.80;99.90
13264;DHT22;6700;51.988;7.646;2022-10-31T19:20:15;14.80;99.90
13264;DHT22;6700;51.988;7.646;2022-10-31T19:22:42;14.70;99.90
13264;DHT22;6700;51.988;7.646;2022-10-31T19:25:09;14.80;99.90
13264;DHT22;6700;51.988;7.646;2022-10-31T19:27:37;14.70;99.90
13264;DHT22;6700;51.988;7.646;2022-10-31T19:30:05;14.80;99.90
13264;DHT22;6700;51.988;7.646;2022-10-31T19:32:32;14.80;99.90
13264;DHT22;6700;51.988;7.646;2022-10-31T19:34:59;14.80;99.90
13264;DHT22;6700;51.988;7.646;2022-10-31T19:37:26;14.80;99.90
13264;DHT22;6700;51.988;7.646;2022-10-31T19:39:53;14.80;99.90
13264;DHT22;6700;51.988;7.646;2022-10-31T19:42:20;14.70;99.90
13264;DHT22;6700;51.988;7.646;2022-10-31T19:44:47;14.70;99.90
13264;DHT22;6700;51.988;7.646;2022-10-31T19:47:13;14.70;99.90
13264;DHT22;6700;51.988;7.646;2022-10-31T19:49:40;14.60;99.90
13264;DHT22;6700;51.988;7.646;2022-10-31T19:52:07;14.50;99.90
13264;DHT22;6700;51.988;7.646;2022-10-31T19:54:34;14.50;99.90
13264;DHT22;6700;51.988;7.646;2022-10-31T19:57:01;14.40;99.90